sensor_id;sensor_type;location;lat;lon;timestamp;temperature;humidity
39931;DHT22;26635;-35.248;149.138;2022-11-30T00:02:12;20.30;70.10
39931;DHT22;26635;-35.248;149.138;2022-11-30T00:04:43;20.30;70.40
39931;DHT22;26635;-35.248;149.138;2022-11-30T00:07:14;20.30;70.60
39931;DHT22;26635;-35.248;149.138;2022-11-30T00:09:45;20.40;70.80
39931;DHT22;26635;-35.248;149.138;2022-11-30T00:12:17;20.40;68.70
39931;DHT22;26635;-35.248;149.138;2022-11-30T00:14:49;20.70;71.10
39931;DHT22;26635;-35.248;149.138;2022-11-30T00:17:20;20.90;69.70
39931;DHT22;26635;-35.248;149.138;2022-11-30T00:19:50;21.10;69.20
39931;DHT22;26635;-35.248;149.138;2022-11-30T00:22:21;21.30;68.60
39931;DHT22;26635;-35.248;149.138;2022-11-30T00:24:52;21.30;69.60
39931;DHT22;26635;-35.248;149.138;2022-11-30T00:27:23;21.30;68.90
39931;DHT22;26635;-35.248;149.138;2022-11-30T00:29:55;21.40;69.50
39931;DHT22;26635;-35.248;149.138;2022-11-30T00:32:26;21.60;69.00
39931;DHT22;26635;-35.248;149.138;2022-11-30T00:34:57;21.80;68.40
39931;DHT22;26635;-35.248;149.138;2022-11-30T00:37:28;21.80;67.30
39931;DHT22;26635;-35.248;149.138;2022-11-30T00:39:58;21.80;68.10
39931;DHT22;26635;-35.248;149.138;2022-11-30T00:42:28;22.00;67.90
39931;DHT22;26635;-35.248;149.138;2022-11-30T00:44:59;22.10;67.60
39931;DHT22;26635;-35.248;149.138;2022-11-30T00:47:30;22.10;66.40
39931;DHT22;26635;-35.248;149.138;2022-11-30T00:50:00;22.10;67.40
39931;DHT22;26635;-35.248;149.138;2022-11-30T00:52:30;22.00;66.80
39931;DHT22;26635;-35.248;149.138;2022-11-30T00:55:00;22.00;67.50
39931;DHT22;26635;-35.248;149.138;2022-11-30T00:57:32;22.00;68.30
39931;DHT22;26635;-35.248;149.138;2022-11-30T01:00:03;22.00;67.60
39931;DHT22;26635;-35.248;149.138;2022-11-30T01:02:34;22.00;67.10
39931;DHT22;26635;-35.248;149.138;2022-11-30T01:05:05;22.10;68.30
39931;DHT22;26635;-35.248;149.138;2022-11-30T01:07:36;22.20;67.90
39931;DHT22;26635;-35.248;149.138;2022-11-30T01:10:08;22.30;68.90
39931;DHT22;26635;-35.248;149.138;2022-11-30T01:12:39;22.40;66.40
39931;DHT22;26635;-35.248;149.138;2022-11-30T01:15:11;22.50;66.20
39931;DHT22;26635;-35.248;149.138;2022-11-30T01:17:41;22.60;67.40
39931;DHT22;26635;-35.248;149.138;2022-11-30T01:20:13;22.60;65.70
39931;DHT22;26635;-35.248;149.138;2022-11-30T01:22:44;22.50;66.20
39931;DHT22;26635;-35.248;149.138;2022-11-30T01:25:17;22.50;66.40
39931;DHT22;26635;-35.248;149.138;2022-11-30T01:27:48;22.30;64.80
39931;DHT22;26635;-35.248;149.138;2022-11-30T01:30:19;22.20;65.50
39931;DHT22;26635;-35.248;149.138;2022-11-30T01:32:49;22.30;66.40
39931;DHT22;26635;-35.248;149.138;2022-11-30T01:35:20;22.60;66.70
39931;DHT22;26635;-35.248;149.138;2022-11-30T01:37:50;22.70;66.00
39931;DHT22;26635;-35.248;149.138;2022-11-30T01:40:21;22.70;64.90
39931;DHT22;26635;-35.248;149.138;2022-11-30T01:42:52;22.90;66.50
39931;DHT22;26635;-35.248;149.138;2022-11-30T01:45:23;23.00;64.40
39931;DHT22;26635;-35.248;149.138;2022-11-30T01:47:55;23.10;66.40
39931;DHT22;26635;-35.248;149.138;2022-11-30T01:50:33;23.20;65.50
39931;DHT22;26635;-35.248;149.138;2022-11-30T01:53:06;23.30;64.60
39931;DHT22;26635;-35.248;149.138;2022-11-30T01:55:41;23.30;64.10
39931;DHT22;26635;-35.248;149.138;2022-11-30T01:58:18;23.40;65.30
39931;DHT22;26635;-35.248;149.138;2022-11-30T02:00:53;23.50;65.10
39931;DHT22;26635;-35.248;149.138;2022-11-30T02:03:42;23.50;63.60
39931;DHT22;26635;-35.248;149.138;2022-11-30T02:06:15;23.60;63.80
39931;DHT22;26635;-35.248;149.138;2022-11-30T02:08:46;23.80;64.90
39931;DHT22;26635;-35.248;149.138;2022-11-30T02:11:17;23.90;64.50
39931;DHT22;26635;-35.248;149.138;2022-11-30T02:22:45;24.20;63.50
39931;DHT22;26635;-35.248;149.138;2022-11-30T02:30:43;24.40;63.20
39931;DHT22;26635;-35.248;149.138;2022-11-30T02:33:23;24.30;60.20
39931;DHT22;26635;-35.248;149.138;2022-11-30T02:35:55;24.20;61.30
39931;DHT22;26635;-35.248;149.138;2022-11-30T02:38:26;24.40;62.10
39931;DHT22;26635;-35.248;149.138;2022-11-30T02:40:57;24.40;61.20
39931;DHT22;26635;-35.248;149.138;2022-11-30T02:43:28;24.50;61.20
39931;DHT22;26635;-35.248;149.138;2022-11-30T02:46:22;24.70;60.90
39931;DHT22;26635;-35.248;149.138;2022-11-30T02:51:29;24.60;58.70
39931;DHT22;26635;-35.248;149.138;2022-11-30T02:54:02;24.60;61.70
39931;DHT22;26635;-35.248;149.138;2022-11-30T02:56:33;24.60;60.80
39931;DHT22;26635;-35.248;149.138;2022-11-30T02:59:04;24.70;60.10
39931;DHT22;26635;-35.248;149.138;2022-11-30T03:01:37;24.80;59.70
39931;DHT22;26635;-35.248;149.138;2022-11-30T03:04:08;24.80;59.90
39931;DHT22;26635;-35.248;149.138;2022-11-30T03:06:38;24.80;59.10
39931;DHT22;26635;-35.248;149.138;2022-11-30T03:09:11;24.70;57.70
39931;DHT22;26635;-35.248;149.138;2022-11-30T03:11:43;24.50;59.70
39931;DHT22;26635;-35.248;149.138;2022-11-30T03:14:15;24.50;59.60
39931;DHT22;26635;-35.248;149.138;2022-11-30T03:16:46;24.50;60.20
39931;DHT22;26635;-35.248;149.138;2022-11-30T03:19:17;24.50;58.00
39931;DHT22;26635;-35.248;149.138;2022-11-30T03:21:48;24.60;59.10
39931;DHT22;26635;-35.248;149.138;2022-11-30T03:24:19;24.70;58.60
39931;DHT22;26635;-35.248;149.138;2022-11-30T03:26:50;24.80;58.00
39931;DHT22;26635;-35.248;149.138;2022-11-30T03:29:21;24.90;59.10
39931;DHT22;26635;-35.248;149.138;2022-11-30T03:31:52;24.90;58.10
39931;DHT22;26635;-35.248;149.138;2022-11-30T03:34:23;25.00;57.90
39931;DHT22;26635;-35.248;149.138;2022-11-30T03:36:56;25.00;58.30
39931;DHT22;26635;-35.248;149.138;2022-11-30T03:39:26;25.00;58.80
39931;DHT22;26635;-35.248;149.138;2022-11-30T03:41:57;24.90;55.80
39931;DHT22;26635;-35.248;149.138;2022-11-30T03:44:27;24.90;58.60
39931;DHT22;26635;-35.248;149.138;2022-11-30T03:46:59;24.90;59.80
39931;DHT22;26635;-35.248;149.138;2022-11-30T03:49:31;25.00;59.10
39931;DHT22;26635;-35.248;149.138;2022-11-30T03:52:03;25.10;58.90
39931;DHT22;26635;-35.248;149.138;2022-11-30T03:54:33;25.10;57.70
39931;DHT22;26635;-35.248;149.138;2022-11-30T03:57:04;25.10;57.90
39931;DHT22;26635;-35.248;149.138;2022-11-30T03:59:34;25.10;57.20
39931;DHT22;26635;-35.248;149.138;2022-11-30T04:02:04;25.10;57.10
39931;DHT22;26635;-35.248;149.138;2022-11-30T04:04:35;25.20;57.00
39931;DHT22;26635;-35.248;149.138;2022-11-30T04:07:06;25.20;58.60
39931;DHT22;26635;-35.248;149.138;2022-11-30T04:09:36;25.20;58.60
39931;DHT22;26635;-35.248;149.138;2022-11-30T04:12:06;25.20;58.20
39931;DHT22;26635;-35.248;149.138;2022-11-30T04:14:37;25.20;55.90
39931;DHT22;26635;-35.248;149.138;2022-11-30T04:17:08;25.10;58.50
39931;DHT22;26635;-35.248;149.138;2022-11-30T04:19:38;25.10;58.90
39931;DHT22;26635;-35.248;149.138;2022-11-30T04:22:09;25.00;59.00
39931;DHT22;26635;-35.248;149.138;2022-11-30T04:24:39;24.80;58.70
39931;DHT22;26635;-35.248;149.138;2022-11-30T04:27:10;24.70;60.00
39931;DHT22;26635;-35.248;149.138;2022-11-30T04:29:40;24.70;60.00
39931;DHT22;26635;-35.248;149.138;2022-11-30T04:32:11;24.70;59.40
39931;DHT22;26635;-35.248;149.138;2022-11-30T04:34:41;24.90;60.10
39931;DHT22;26635;-35.248;149.138;2022-11-30T04:37:12;25.00;60.10
39931;DHT22;26635;-35.248;149.138;2022-11-30T04:39:42;25.10;59.80
39931;DHT22;26635;-35.248;149.138;2022-11-30T04:42:23;25.10;58.20
39931;DHT22;26635;-35.248;149.138;2022-11-30T04:44:54;25.00;58.00
39931;DHT22;26635;-35.248;149.138;2022-11-30T04:47:24;25.10;59.60
39931;DHT22;26635;-35.248;149.138;2022-11-30T04:49:55;25.20;59.00
39931;DHT22;26635;-35.248;149.138;2022-11-30T04:52:26;25.20;59.30
39931;DHT22;26635;-35.248;149.138;2022-11-30T04:54:58;25.10;58.70
39931;DHT22;26635;-35.248;149.138;2022-11-30T04:57:32;25.00;58.50
39931;DHT22;26635;-35.248;149.138;2022-11-30T05:00:11;24.90;58.80
39931;DHT22;26635;-35.248;149.138;2022-11-30T05:02:44;24.70;59.60
39931;DHT22;26635;-35.248;149.138;2022-11-30T05:05:20;24.40;59.70
39931;DHT22;26635;-35.248;149.138;2022-11-30T05:07:58;24.20;60.50
39931;DHT22;26635;-35.248;149.138;2022-11-30T05:10:29;24.00;59.90
39931;DHT22;26635;-35.248;149.138;2022-11-30T05:13:02;23.90;60.70
39931;DHT22;26635;-35.248;149.138;2022-11-30T05:15:33;23.70;60.00
39931;DHT22;26635;-35.248;149.138;2022-11-30T05:18:03;23.60;60.30
39931;DHT22;26635;-35.248;149.138;2022-11-30T05:20:33;23.40;60.60
39931;DHT22;26635;-35.248;149.138;2022-11-30T05:23:04;23.30;61.20
39931;DHT22;26635;-35.248;149.138;2022-11-30T05:25:34;23.20;61.90
39931;DHT22;26635;-35.248;149.138;2022-11-30T05:28:05;23.10;62.20
39931;DHT22;26635;-35.248;149.138;2022-11-30T05:30:36;23.00;61.70
39931;DHT22;26635;-35.248;149.138;2022-11-30T05:33:08;23.00;62.40
39931;DHT22;26635;-35.248;149.138;2022-11-30T05:35:39;22.90;62.90
39931;DHT22;26635;-35.248;149.138;2022-11-30T05:38:10;23.00;63.30
39931;DHT22;26635;-35.248;149.138;2022-11-30T05:41:03;23.00;61.50
39931;DHT22;26635;-35.248;149.138;2022-11-30T05:43:34;23.00;61.30
39931;DHT22;26635;-35.248;149.138;2022-11-30T05:46:18;22.90;61.10
39931;DHT22;26635;-35.248;149.138;2022-11-30T05:49:03;22.80;61.60
39931;DHT22;26635;-35.248;149.138;2022-11-30T05:51:46;22.70;61.50
39931;DHT22;26635;-35.248;149.138;2022-11-30T05:54:17;22.70;62.30
39931;DHT22;26635;-35.248;149.138;2022-11-30T05:56:48;22.70;60.20
39931;DHT22;26635;-35.248;149.138;2022-11-30T05:59:22;22.70;60.30
39931;DHT22;26635;-35.248;149.138;2022-11-30T06:01:54;22.80;60.70
39931;DHT22;26635;-35.248;149.138;2022-11-30T06:04:34;22.80;60.80
39931;DHT22;26635;-35.248;149.138;2022-11-30T06:07:05;22.70;60.40
39931;DHT22;26635;-35.248;149.138;2022-11-30T06:09:41;22.60;60.20
39931;DHT22;26635;-35.248;149.138;2022-11-30T06:12:12;22.60;61.10
39931;DHT22;26635;-35.248;149.138;2022-11-30T06:14:43;22.50;61.70
39931;DHT22;26635;-35.248;149.138;2022-11-30T06:17:14;22.40;61.60
39931;DHT22;26635;-35.248;149.138;2022-11-30T06:19:45;22.40;61.90
39931;DHT22;26635;-35.248;149.138;2022-11-30T06:22:15;22.30;61.70
39931;DHT22;26635;-35.248;149.138;2022-11-30T06:24:46;22.20;61.60
39931;DHT22;26635;-35.248;149.138;2022-11-30T06:27:16;22.10;61.50
39931;DHT22;26635;-35.248;149.138;2022-11-30T06:29:48;22.10;61.80
39931;DHT22;26635;-35.248;149.138;2022-11-30T06:32:20;22.00;61.90
39931;DHT22;26635;-35.248;149.138;2022-11-30T06:34:55;22.10;61.50
39931;DHT22;26635;-35.248;149.138;2022-11-30T06:37:53;22.10;62.70
39931;DHT22;26635;-35.248;149.138;2022-11-30T06:40:32;22.20;63.30
39931;DHT22;26635;-35.248;149.138;2022-11-30T06:43:18;22.20;63.50
39931;DHT22;26635;-35.248;149.138;2022-11-30T06:45:52;22.10;64.00
39931;DHT22;26635;-35.248;149.138;2022-11-30T06:48:24;22.10;64.00
39931;DHT22;26635;-35.248;149.138;2022-11-30T06:51:09;22.00;63.20
39931;DHT22;26635;-35.248;149.138;2022-11-30T06:53:52;21.90;63.50
39931;DHT22;26635;-35.248;149.138;2022-11-30T06:56:26;21.80;63.30
39931;DHT22;26635;-35.248;149.138;2022-11-30T06:59:10;21.80;63.50
39931;DHT22;26635;-35.248;149.138;2022-11-30T07:01:53;21.70;64.20
39931;DHT22;26635;-35.248;149.138;2022-11-30T07:04:35;21.70;65.70
39931;DHT22;26635;-35.248;149.138;2022-11-30T07:07:07;21.70;65.80
39931;DHT22;26635;-35.248;149.138;2022-11-30T07:09:43;21.60;66.30
39931;DHT22;26635;-35.248;149.138;2022-11-30T07:12:26;21.40;67.30
39931;DHT22;26635;-35.248;149.138;2022-11-30T07:15:09;21.40;67.10
39931;DHT22;26635;-35.248;149.138;2022-11-30T07:17:41;21.30;66.70
39931;DHT22;26635;-35.248;149.138;2022-11-30T07:20:24;21.20;67.40
39931;DHT22;26635;-35.248;149.138;2022-11-30T07:22:59;21.10;68.80
39931;DHT22;26635;-35.248;149.138;2022-11-30T07:26:04;21.00;68.30
39931;DHT22;26635;-35.248;149.138;2022-11-30T07:28:42;21.00;68.70
39931;DHT22;26635;-35.248;149.138;2022-11-30T07:31:32;20.90;69.40
39931;DHT22;26635;-35.248;149.138;2022-11-30T07:34:13;20.90;69.10
39931;DHT22;26635;-35.248;149.138;2022-11-30T07:36:47;20.80;68.70
39931;DHT22;26635;-35.248;149.138;2022-11-30T07:39:23;20.70;68.10
39931;DHT22;26635;-35.248;149.138;2022-11-30T07:42:02;20.70;69.00
39931;DHT22;26635;-35.248;149.138;2022-11-30T07:44:36;20.60;69.60
39931;DHT22;26635;-35.248;149.138;2022-11-30T07:47:10;20.60;69.80
39931;DHT22;26635;-35.248;149.138;2022-11-30T07:49:40;20.50;70.30
39931;DHT22;26635;-35.248;149.138;2022-11-30T07:52:11;20.40;70.90
39931;DHT22;26635;-35.248;149.138;2022-11-30T07:54:41;20.40;71.60
39931;DHT22;26635;-35.248;149.138;2022-11-30T07:57:12;20.40;71.10
39931;DHT22;26635;-35.248;149.138;2022-11-30T07:59:43;20.30;70.90
39931;DHT22;26635;-35.248;149.138;2022-11-30T08:02:19;20.20;71.40
39931;DHT22;26635;-35.248;149.138;2022-11-30T08:04:51;20.20;72.00
39931;DHT22;26635;-35.248;149.138;2022-11-30T08:07:25;20.20;71.50
39931;DHT22;26635;-35.248;149.138;2022-11-30T08:09:56;20.20;72.80
39931;DHT22;26635;-35.248;149.138;2022-11-30T08:12:28;20.10;72.00
39931;DHT22;26635;-35.248;149.138;2022-11-30T08:15:00;20.10;73.00
39931;DHT22;26635;-35.248;149.138;2022-11-30T08:17:48;20.10;72.50
39931;DHT22;26635;-35.248;149.138;2022-11-30T08:20:24;19.90;72.00
39931;DHT22;26635;-35.248;149.138;2022-11-30T08:22:57;19.90;72.80
39931;DHT22;26635;-35.248;149.138;2022-11-30T08:25:28;19.90;72.80
39931;DHT22;26635;-35.248;149.138;2022-11-30T08:28:01;19.80;73.10
39931;DHT22;26635;-35.248;149.138;2022-11-30T08:30:33;19.80;73.30
39931;DHT22;26635;-35.248;149.138;2022-11-30T08:33:08;19.80;73.70
39931;DHT22;26635;-35.248;149.138;2022-11-30T08:35:38;19.70;73.50
39931;DHT22;26635;-35.248;149.138;2022-11-30T08:38:09;19.70;73.30
39931;DHT22;26635;-35.248;149.138;2022-11-30T08:40:39;19.60;72.90
39931;DHT22;26635;-35.248;149.138;2022-11-30T08:43:10;19.60;73.40
39931;DHT22;26635;-35.248;149.138;2022-11-30T08:45:43;19.60;74.30
39931;DHT22;26635;-35.248;149.138;2022-11-30T08:48:21;19.60;74.40
39931;DHT22;26635;-35.248;149.138;2022-11-30T08:50:53;19.50;73.50
39931;DHT22;26635;-35.248;149.138;2022-11-30T08:53:25;19.40;74.50
39931;DHT22;26635;-35.248;149.138;2022-11-30T08:56:02;19.30;74.40
39931;DHT22;26635;-35.248;149.138;2022-11-30T08:58:37;19.30;74.50
39931;DHT22;26635;-35.248;149.138;2022-11-30T09:01:21;19.30;75.00
39931;DHT22;26635;-35.248;149.138;2022-11-30T09:03:58;19.20;75.30
39931;DHT22;26635;-35.248;149.138;2022-11-30T09:06:30;19.20;75.70
39931;DHT22;26635;-35.248;149.138;2022-11-30T09:09:02;19.10;75.90
39931;DHT22;26635;-35.248;149.138;2022-11-30T09:11:33;19.10;76.30
39931;DHT22;26635;-35.248;149.138;2022-11-30T09:14:04;19.10;76.40
39931;DHT22;26635;-35.248;149.138;2022-11-30T09:16:35;19.00;76.10
39931;DHT22;26635;-35.248;149.138;2022-11-30T09:19:05;18.90;75.60
39931;DHT22;26635;-35.248;149.138;2022-11-30T09:21:36;18.90;76.20
39931;DHT22;26635;-35.248;149.138;2022-11-30T09:24:06;18.90;76.00
39931;DHT22;26635;-35.248;149.138;2022-11-30T09:26:37;18.70;75.80
39931;DHT22;26635;-35.248;149.138;2022-11-30T09:29:07;18.70;76.60
39931;DHT22;26635;-35.248;149.138;2022-11-30T09:31:38;18.70;76.20
39931;DHT22;26635;-35.248;149.138;2022-11-30T09:34:11;18.70;77.00
39931;DHT22;26635;-35.248;149.138;2022-11-30T09:36:42;18.60;76.00
39931;DHT22;26635;-35.248;149.138;2022-11-30T09:39:12;18.60;76.40
39931;DHT22;26635;-35.248;149.138;2022-11-30T09:42:08;18.50;76.90
39931;DHT22;26635;-35.248;149.138;2022-11-30T09:50:27;18.50;77.00
39931;DHT22;26635;-35.248;149.138;2022-11-30T09:53:08;18.40;76.60
39931;DHT22;26635;-35.248;149.138;2022-11-30T09:55:41;18.30;77.00
39931;DHT22;26635;-35.248;149.138;2022-11-30T09:58:43;18.30;77.50
39931;DHT22;26635;-35.248;149.138;2022-11-30T10:01:20;18.30;78.40
39931;DHT22;26635;-35.248;149.138;2022-11-30T10:03:51;18.20;78.30
39931;DHT22;26635;-35.248;149.138;2022-11-30T10:06:31;18.20;78.70
39931;DHT22;26635;-35.248;149.138;2022-11-30T10:09:21;18.10;79.30
39931;DHT22;26635;-35.248;149.138;2022-11-30T10:12:11;18.00;79.50
39931;DHT22;26635;-35.248;149.138;2022-11-30T10:20:38;17.90;80.70
39931;DHT22;26635;-35.248;149.138;2022-11-30T10:26:31;17.90;81.20
39931;DHT22;26635;-35.248;149.138;2022-11-30T10:29:18;17.90;81.80
39931;DHT22;26635;-35.248;149.138;2022-11-30T10:31:54;17.80;82.30
39931;DHT22;26635;-35.248;149.138;2022-11-30T10:34:35;17.80;82.30
39931;DHT22;26635;-35.248;149.138;2022-11-30T10:37:11;17.70;82.70
39931;DHT22;26635;-35.248;149.138;2022-11-30T10:42:46;17.80;83.40
39931;DHT22;26635;-35.248;149.138;2022-11-30T10:45:23;17.70;82.80
39931;DHT22;26635;-35.248;149.138;2022-11-30T10:50:29;17.70;83.80
39931;DHT22;26635;-35.248;149.138;2022-11-30T10:53:01;17.70;83.70
39931;DHT22;26635;-35.248;149.138;2022-11-30T11:01:38;17.60;83.90
39931;DHT22;26635;-35.248;149.138;2022-11-30T11:04:25;17.60;84.00
39931;DHT22;26635;-35.248;149.138;2022-11-30T11:06:58;17.50;84.30
39931;DHT22;26635;-35.248;149.138;2022-11-30T11:09:46;17.50;85.00
39931;DHT22;26635;-35.248;149.138;2022-11-30T11:12:23;17.40;85.00
39931;DHT22;26635;-35.248;149.138;2022-11-30T11:15:23;17.50;84.60
39931;DHT22;26635;-35.248;149.138;2022-11-30T11:20:42;17.40;84.10
39931;DHT22;26635;-35.248;149.138;2022-11-30T11:23:31;17.40;85.10
39931;DHT22;26635;-35.248;149.138;2022-11-30T11:26:01;17.40;85.10
39931;DHT22;26635;-35.248;149.138;2022-11-30T11:28:34;17.40;85.20
39931;DHT22;26635;-35.248;149.138;2022-11-30T11:31:29;17.40;85.10
39931;DHT22;26635;-35.248;149.138;2022-11-30T11:34:02;17.40;84.80
39931;DHT22;26635;-35.248;149.138;2022-11-30T11:36:33;17.40;84.80
39931;DHT22;26635;-35.248;149.138;2022-11-30T11:39:24;17.40;84.70
39931;DHT22;26635;-35.248;149.138;2022-11-30T11:41:55;17.30;85.70
39931;DHT22;26635;-35.248;149.138;2022-11-30T11:44:26;17.30;85.20
39931;DHT22;26635;-35.248;149.138;2022-11-30T11:47:05;17.30;85.10
39931;DHT22;26635;-35.248;149.138;2022-11-30T11:49:37;17.30;85.10
39931;DHT22;26635;-35.248;149.138;2022-11-30T11:57:22;17.20;84.90
39931;DHT22;26635;-35.248;149.138;2022-11-30T12:00:15;17.10;85.20
39931;DHT22;26635;-35.248;149.138;2022-11-30T12:03:09;17.00;85.70
39931;DHT22;26635;-35.248;149.138;2022-11-30T12:05:54;16.90;85.80
39931;DHT22;26635;-35.248;149.138;2022-11-30T12:11:44;16.80;86.10
39931;DHT22;26635;-35.248;149.138;2022-11-30T12:14:18;16.80;86.20
39931;DHT22;26635;-35.248;149.138;2022-11-30T12:19:41;16.80;86.50
39931;DHT22;26635;-35.248;149.138;2022-11-30T12:33:29;16.70;86.80
39931;DHT22;26635;-35.248;149.138;2022-11-30T12:42:10;16.80;87.10
39931;DHT22;26635;-35.248;149.138;2022-11-30T12:53:30;16.60;88.10
39931;DHT22;26635;-35.248;149.138;2022-11-30T12:56:22;16.50;88.10
39931;DHT22;26635;-35.248;149.138;2022-11-30T13:04:37;16.50;88.10
39931;DHT22;26635;-35.248;149.138;2022-11-30T13:10:00;16.40;88.00
39931;DHT22;26635;-35.248;149.138;2022-11-30T13:12:36;16.40;88.00
39931;DHT22;26635;-35.248;149.138;2022-11-30T13:15:20;16.40;88.30
39931;DHT22;26635;-35.248;149.138;2022-11-30T13:17:52;16.40;88.40
39931;DHT22;26635;-35.248;149.138;2022-11-30T13:20:36;16.30;88.50
39931;DHT22;26635;-35.248;149.138;2022-11-30T13:26:30;16.30;88.20
39931;DHT22;26635;-35.248;149.138;2022-11-30T13:32:01;16.20;88.10
39931;DHT22;26635;-35.248;149.138;2022-11-30T13:34:49;16.10;88.20
39931;DHT22;26635;-35.248;149.138;2022-11-30T13:37:21;16.00;89.10
39931;DHT22;26635;-35.248;149.138;2022-11-30T13:39:55;16.00;88.90
39931;DHT22;26635;-35.248;149.138;2022-11-30T13:42:43;16.00;88.90
39931;DHT22;26635;-35.248;149.138;2022-11-30T13:45:30;15.90;88.90
39931;DHT22;26635;-35.248;149.138;2022-11-30T13:48:30;15.80;89.10
39931;DHT22;26635;-35.248;149.138;2022-11-30T13:51:01;15.80;89.40
39931;DHT22;26635;-35.248;149.138;2022-11-30T13:53:34;15.80;89.40
39931;DHT22;26635;-35.248;149.138;2022-11-30T14:15:52;15.40;90.40
39931;DHT22;26635;-35.248;149.138;2022-11-30T14:18:40;15.30;90.40
39931;DHT22;26635;-35.248;149.138;2022-11-30T14:21:23;15.30;90.50
39931;DHT22;26635;-35.248;149.138;2022-11-30T14:24:01;15.30;90.40
39931;DHT22;26635;-35.248;149.138;2022-11-30T14:26:39;15.30;90.50
39931;DHT22;26635;-35.248;149.138;2022-11-30T14:29:22;15.40;90.60
39931;DHT22;26635;-35.248;149.138;2022-11-30T14:32:02;15.30;90.50
39931;DHT22;26635;-35.248;149.138;2022-11-30T14:34:42;15.30;90.60
39931;DHT22;26635;-35.248;149.138;2022-11-30T14:37:26;15.40;90.50
39931;DHT22;26635;-35.248;149.138;2022-11-30T14:40:03;15.40;90.40
39931;DHT22;26635;-35.248;149.138;2022-11-30T14:42:35;15.50;90.40
39931;DHT22;26635;-35.248;149.138;2022-11-30T14:45:23;15.50;90.20
39931;DHT22;26635;-35.248;149.138;2022-11-30T14:48:11;15.50;90.20
39931;DHT22;26635;-35.248;149.138;2022-11-30T14:50:52;15.60;90.20
39931;DHT22;26635;-35.248;149.138;2022-11-30T14:53:46;15.60;90.20
39931;DHT22;26635;-35.248;149.138;2022-11-30T14:56:47;15.60;90.10
39931;DHT22;26635;-35.248;149.138;2022-11-30T14:59:46;15.60;90.00
39931;DHT22;26635;-35.248;149.138;2022-11-30T15:02:30;15.60;90.00
39931;DHT22;26635;-35.248;149.138;2022-11-30T15:05:07;15.60;89.50
39931;DHT22;26635;-35.248;149.138;2022-11-30T15:07:40;15.60;89.50
39931;DHT22;26635;-35.248;149.138;2022-11-30T15:10:31;15.50;89.60
39931;DHT22;26635;-35.248;149.138;2022-11-30T15:13:02;15.50;89.60
39931;DHT22;26635;-35.248;149.138;2022-11-30T15:15:33;15.50;89.40
39931;DHT22;26635;-35.248;149.138;2022-11-30T15:18:19;15.40;89.20
39931;DHT22;26635;-35.248;149.138;2022-11-30T15:21:04;15.40;89.20
39931;DHT22;26635;-35.248;149.138;2022-11-30T15:23:35;15.40;88.80
39931;DHT22;26635;-35.248;149.138;2022-11-30T15:26:18;15.40;89.00
39931;DHT22;26635;-35.248;149.138;2022-11-30T15:29:05;15.40;89.00
39931;DHT22;26635;-35.248;149.138;2022-11-30T15:31:40;15.40;88.40
39931;DHT22;26635;-35.248;149.138;2022-11-30T15:34:29;15.40;89.00
39931;DHT22;26635;-35.248;149.138;2022-11-30T15:37:04;15.40;89.10
39931;DHT22;26635;-35.248;149.138;2022-11-30T15:39:36;15.40;89.70
39931;DHT22;26635;-35.248;149.138;2022-11-30T15:42:13;15.30;89.70
39931;DHT22;26635;-35.248;149.138;2022-11-30T15:44:47;15.20;89.60
39931;DHT22;26635;-35.248;149.138;2022-11-30T15:47:44;15.20;90.00
39931;DHT22;26635;-35.248;149.138;2022-11-30T15:53:02;15.00;89.80
39931;DHT22;26635;-35.248;149.138;2022-11-30T15:55:50;15.00;90.10
39931;DHT22;26635;-35.248;149.138;2022-11-30T15:58:28;14.90;90.10
39931;DHT22;26635;-35.248;149.138;2022-11-30T16:01:09;14.80;89.80
39931;DHT22;26635;-35.248;149.138;2022-11-30T16:09:17;14.80;90.10
39931;DHT22;26635;-35.248;149.138;2022-11-30T16:11:53;14.70;90.20
39931;DHT22;26635;-35.248;149.138;2022-11-30T16:14:33;14.70;90.20
39931;DHT22;26635;-35.248;149.138;2022-11-30T16:17:04;14.70;90.30
39931;DHT22;26635;-35.248;149.138;2022-11-30T16:19:36;14.60;90.40
39931;DHT22;26635;-35.248;149.138;2022-11-30T16:22:09;14.60;90.40
39931;DHT22;26635;-35.248;149.138;2022-11-30T16:24:40;14.60;90.50
39931;DHT22;26635;-35.248;149.138;2022-11-30T16:27:18;14.50;90.60
39931;DHT22;26635;-35.248;149.138;2022-11-30T16:29:51;14.50;90.60
39931;DHT22;26635;-35.248;149.138;2022-11-30T16:32:22;14.40;90.80
39931;DHT22;26635;-35.248;149.138;2022-11-30T16:34:52;14.40;90.70
39931;DHT22;26635;-35.248;149.138;2022-11-30T16:37:23;14.40;90.80
39931;DHT22;26635;-35.248;149.138;2022-11-30T16:39:53;14.40;90.70
39931;DHT22;26635;-35.248;149.138;2022-11-30T16:42:23;14.30;90.70
39931;DHT22;26635;-35.248;149.138;2022-11-30T16:44:53;14.30;90.80
39931;DHT22;26635;-35.248;149.138;2022-11-30T16:47:24;14.40;90.80
39931;DHT22;26635;-35.248;149.138;2022-11-30T16:49:55;14.40;90.70
39931;DHT22;26635;-35.248;149.138;2022-11-30T16:52:26;14.40;90.40
39931;DHT22;26635;-35.248;149.138;2022-11-30T16:54:56;14.50;90.40
39931;DHT22;26635;-35.248;149.138;2022-11-30T16:57:27;14.50;90.40
39931;DHT22;26635;-35.248;149.138;2022-11-30T16:59:57;14.50;90.40
39931;DHT22;26635;-35.248;149.138;2022-11-30T17:02:27;14.50;90.10
39931;DHT22;26635;-35.248;149.138;2022-11-30T17:04:58;14.60;90.30
39931;DHT22;26635;-35.248;149.138;2022-11-30T17:07:29;14.60;90.40
39931;DHT22;26635;-35.248;149.138;2022-11-30T17:10:00;14.70;90.40
39931;DHT22;26635;-35.248;149.138;2022-11-30T17:12:30;14.70;90.30
39931;DHT22;26635;-35.248;149.138;2022-11-30T17:15:01;14.80;90.30
39931;DHT22;26635;-35.248;149.138;2022-11-30T17:17:32;14.80;90.00
39931;DHT22;26635;-35.248;149.138;2022-11-30T17:20:07;14.90;90.20
39931;DHT22;26635;-35.248;149.138;2022-11-30T17:22:37;14.80;90.00
39931;DHT22;26635;-35.248;149.138;2022-11-30T17:25:13;14.80;89.80
39931;DHT22;26635;-35.248;149.138;2022-11-30T17:27:45;14.80;89.90
39931;DHT22;26635;-35.248;149.138;2022-11-30T17:30:19;14.80;90.00
39931;DHT22;26635;-35.248;149.138;2022-11-30T17:32:50;14.80;90.00
39931;DHT22;26635;-35.248;149.138;2022-11-30T17:35:20;14.80;89.90
39931;DHT22;26635;-35.248;149.138;2022-11-30T17:37:52;14.80;89.60
39931;DHT22;26635;-35.248;149.138;2022-11-30T17:40:23;14.80;89.60
39931;DHT22;26635;-35.248;149.138;2022-11-30T17:42:53;14.80;90.10